HTKJ

Kilimanjaro International Airport

Arusha, Tanzania
METAR HTKJ 222000Z 13020KT 9999 BKN024 BKN080 21/18 Q1020 NOSIG
Observed Flight Rules
Oct-22 @ 20:00 UTC (52 minutes ago) Marginal Visual Flight Rules
Wind Visibility Clouds
130° at 20 knots 10,000+ meters
  • Broken at 2,400' AGL
  • Broken at 8,000' AGL
Temperatures Readings
Current 21°C / 70°F
Dewpoint 18°C / 64°F
Humidity 83%
Altimeter 30.12" Hg
Pressure 1020 hPa
Elevation 896
METAR HTKJ 222000Z 13020KT 9999 BKN024 BKN080 21/18 Q1020 NOSIG
Observed Flight Rules
Oct-22 @ 20:00 UTC
(52 minutes ago)
MVFR
Wind Visibility
130° at 20 knots 10,000+ meters
Clouds
  • Broken at 2,400' AGL
  • Broken at 8,000' AGL
Temperature Dewpoint
21°C / 70°F 18°C / 64°F
Humidity Altimeter Pressure
83% 30.12" Hg 1020 hPa